Isabel L — WDF6141 — position and weather

sailwx.info

Track history (hours):
 
Tides and Currents Weather Stations Pressure Air Temp Water Temp Dewpoint Dewpoint Depression Visibility Wind Speed Wind Dir Waves Ship Positions

Isabel L

Owner: SO CAL SHIP SERVICES, TERMINAL ISLAND, CA. More information available from US FCC via Universal Licensing System and Coast Guard Vessel Documentation Center.

Last reported at 2018-Feb-13 15:38 UTC. Time now 2018-Feb-23 06:59 UTC.
Position N 33°36' W 118°09'.
Warning: this ship's position is 9 days out of date.

Length 28 m; draft 2 m.

Type: Ship (hazmat cat B). MMSI: 367471080.

Date/timePositionNaut miles runAvg speedWind from/ knotsBaromVisibWave heightAir tempDewpointWater temp
2018-Feb-13 15:38N 33°36' W 118°09'0 0.0
2018-Feb-13 15:23N 33°36' W 118°09'0 0.2
2018-Feb-13 15:00N 33°36' W 118°09'7 0.8
2018-Feb-13 05:53N 33°43' W 118°09'512.9
2018-Feb-13 05:29N 33°43' W 118°15'2 3.5
2018-Feb-13 04:59N 33°44' W 118°16'0 0.0
2018-Feb-13 04:30N 33°44' W 118°16'11 0.2
2018-Feb-11 01:43N 33°40' W 118°04'314.6
2018-Feb-11 01:30N 33°43' W 118°06'1 2.7
2018-Feb-11 01:00N 33°44' W 118°07'4 2.0
2018-Feb-10 22:59N 33°40' W 118°05'714.2
2018-Feb-10 22:30N 33°44' W 118°12'4 5.2
2018-Feb-10 21:44N 33°44' W 118°16'0 0.0
2018-Feb-10 21:31N 33°44' W 118°16'0 0.0
2018-Feb-10 21:00N 33°44' W 118°16'0 0.0
2018-Feb-10 20:31N 33°44' W 118°16'0 0.0
2018-Feb-10 20:00N 33°44' W 118°16'1 1.4
2018-Feb-10 19:30N 33°43' W 118°16'612.3
2018-Feb-10 19:00N 33°43' W 118°09'7 6.5
2018-Feb-10 17:53N 33°36' W 118°09'1 2.8
2018-Feb-10 17:30N 33°37' W 118°08'1 1.2
2018-Feb-10 17:00N 33°36' W 118°08'1 0.4
2018-Feb-10 15:36N 33°36' W 118°09'0 0.0
2018-Feb-10 15:29N 33°36' W 118°09'0 0.0
2018-Feb-10 15:00N 33°36' W 118°09'7 0.8
2018-Feb-10 06:05N 33°43' W 118°10'111.5
2018-Feb-10 05:59N 33°44' W 118°11'4 8.6
2018-Feb-10 05:30N 33°44' W 118°16'0 0.5
2018-Feb-10 04:59N 33°44' W 118°16'1 1.5
2018-Feb-10 04:30N 33°43' W 118°16'8 9.6
2018-Feb-10 03:41N 33°43' W 118°07'0 0.3
2018-Feb-10 02:32N 33°43' W 118°07'1 4.4
2018-Feb-10 02:14N 33°42' W 118°06'313.6
2018-Feb-10 02:00N 33°40' W 118°04'4 8.6
2018-Feb-10 01:30N 33°43' W 118°07'3 6.8
2018-Feb-10 01:00N 33°41' W 118°04'510.7
2018-Feb-10 00:30N 33°36' W 118°08'2 4.3
2018-Feb-10 00:00N 33°39' W 118°08'7 1.0
2018-Feb-09 17:30N 33°43' W 118°14'2 4.8
2018-Feb-09 17:00N 33°44' W 118°16'1 2.2
2018-Feb-09 16:31N 33°43' W 118°16'1 0.2
2018-Feb-09 12:31N 33°44' W 118°16'0 0.8
2018-Feb-09 12:00N 33°44' W 118°16'0 0.0
2018-Feb-09 04:31N 33°44' W 118°16'8 1.8
2018-Feb-09 00:00N 33°43' W 118°07'0 0.0
2018-Feb-08 23:00N 33°43' W 118°07'6 1.8
2018-Feb-08 20:00N 33°38' W 118°06'3 6.2
2018-Feb-08 19:30N 33°36' W 118°09'10 1.4
2018-Feb-08 12:30N 33°43' W 118°16'1 0.6
2018-Feb-08 11:00N 33°44' W 118°16'0 0.0
2018-Feb-08 04:30N 33°44' W 118°16'10 3.4
2018-Feb-08 01:30N 33°41' W 118°05'3 6.9
2018-Feb-08 01:00N 33°44' W 118°07'1 2.6
2018-Feb-08 00:31N 33°43' W 118°06'610.9
2018-Feb-08 00:00N 33°37' W 118°07'3 5.8
2018-Feb-07 23:30N 33°40' W 118°07'3 5.0
2018-Feb-07 23:00N 33°40' W 118°04'4 7.9
2018-Feb-07 22:28N 33°44' W 118°06'1 2.3
2018-Feb-07 22:01N 33°43' W 118°07'0 0.0
2018-Feb-07 21:31N 33°43' W 118°07'8 0.7
2018-Feb-07 09:29N 33°44' W 118°16'0 0.0
2018-Feb-07 09:00N 33°44' W 118°16'0 0.0
2018-Feb-07 08:30N 33°44' W 118°16'0 0.0
2018-Feb-07 08:00N 33°44' W 118°16'0 0.0
2018-Feb-07 07:30N 33°44' W 118°16'0 0.0
2018-Feb-07 07:00N 33°44' W 118°16'0 0.0
2018-Feb-07 06:29N 33°44' W 118°16'0 0.0
2018-Feb-07 06:00N 33°44' W 118°16'0 0.0
2018-Feb-07 05:30N 33°44' W 118°16'0 0.0
2018-Feb-07 05:00N 33°44' W 118°16'0 0.0
2018-Feb-07 04:30N 33°44' W 118°16'0 0.0
2018-Feb-07 03:59N 33°44' W 118°16'0 0.0
2018-Feb-07 03:30N 33°44' W 118°16'1 1.6
2018-Feb-07 03:00N 33°43' W 118°16'813.6
2018-Feb-07 02:24N 33°44' W 118°06'2 5.0
2018-Feb-07 01:57N 33°42' W 118°06'1 2.3
2018-Feb-07 01:30N 33°41' W 118°05'3 5.3
2018-Feb-07 00:58N 33°43' W 118°07'7 6.7
2018-Feb-06 23:57N 33°37' W 118°08'2 5.5
2018-Feb-06 23:30N 33°39' W 118°08'4 8.4
2018-Feb-06 23:00N 33°43' W 118°07'1 2.0
2018-Feb-06 22:31N 33°44' W 118°07'4 8.1
2018-Feb-06 21:59N 33°40' W 118°04'6 1.5
2018-Feb-06 18:07N 33°36' W 118°09'0 0.1
2018-Feb-06 17:59N 33°36' W 118°09'0 0.0
2018-Feb-06 17:07N 33°36' W 118°09'1 0.7
2018-Feb-06 15:30N 33°35' W 118°08'4 7.0
2018-Feb-06 15:00N 33°39' W 118°08'6 3.3
2018-Feb-06 13:15N 33°44' W 118°06'1 0.2
2018-Feb-06 08:17N 33°43' W 118°07'4 0.6
2018-Feb-06 01:41N 33°40' W 118°04'213.6
2018-Feb-06 01:30N 33°42' W 118°05'2 4.5
2018-Feb-06 01:00N 33°44' W 118°07'0 0.7
2018-Feb-06 00:27N 33°44' W 118°07'814.4
2018-Feb-05 23:52N 33°36' W 118°09'512.9
2018-Feb-05 23:30N 33°39' W 118°12'6 7.1
2018-Feb-05 22:42N 33°44' W 118°16'0 0.0
2018-Feb-05 22:30N 33°44' W 118°16'3 5.2
2018-Feb-05 22:00N 33°43' W 118°13'9 8.7
2018-Feb-05 21:00N 33°40' W 118°04'5 7.6
2018-Feb-05 20:21N 33°44' W 118°07'8 6.5
2018-Feb-05 19:03N 33°36' W 118°08'1 6.2
2018-Feb-05 18:54N 33°35' W 118°08'1 0.6
2018-Feb-05 17:02N 33°36' W 118°08'0 0.2
2018-Feb-05 17:00N 33°36' W 118°08'0 0.1
2018-Feb-05 16:30N 33°36' W 118°09'0 0.0
2018-Feb-05 16:00N 33°36' W 118°09'1 1.2
2018-Feb-05 15:00N 33°37' W 118°08'5 0.4
2018-Feb-05 01:34N 33°42' W 118°05'115.6
2018-Feb-05 01:30N 33°43' W 118°06'1 1.5
2018-Feb-05 01:00N 33°43' W 118°07'0 0.0
2018-Feb-05 00:30N 33°43' W 118°07'0 0.0
2018-Feb-05 00:00N 33°43' W 118°07'0 0.0
2018-Feb-04 23:30N 33°43' W 118°07'0 0.0
2018-Feb-04 23:00N 33°43' W 118°07'0 0.0
2018-Feb-04 22:30N 33°43' W 118°07'0 0.7
2018-Feb-04 22:00N 33°43' W 118°06'2 3.8
2018-Feb-04 21:30N 33°41' W 118°06'6 2.3
2018-Feb-04 18:51N 33°43' W 118°13'912.9
2018-Feb-04 18:10N 33°40' W 118°04'6 2.1
2018-Feb-04 15:29N 33°36' W 118°08'1 2.2
2018-Feb-04 15:00N 33°37' W 118°08'6 2.4
2018-Feb-04 12:17N 33°43' W 118°07'0 0.0
2018-Feb-04 12:00N 33°43' W 118°07'0 0.0
2018-Feb-04 11:31N 33°43' W 118°07'0 0.0
2018-Feb-04 05:47N 33°43' W 118°07'0 0.0
2018-Feb-04 05:27N 33°43' W 118°07'0 0.0
2018-Feb-04 04:59N 33°43' W 118°07'0 0.0
2018-Feb-04 04:23N 33°43' W 118°07'0 0.0
2018-Feb-04 03:35N 33°43' W 118°07'713.4
2018-Feb-04 03:02N 33°36' W 118°08'0 2.2
2018-Feb-04 03:00N 33°36' W 118°09'6 5.6
2018-Feb-04 01:59N 33°40' W 118°04'4 8.0
2018-Feb-04 01:30N 33°43' W 118°07'0 0.5
2018-Feb-04 01:01N 33°43' W 118°07'0 0.0
2018-Feb-04 00:30N 33°43' W 118°07'0 0.0
2018-Feb-04 00:00N 33°43' W 118°07'2 3.5
2018-Feb-03 23:30N 33°42' W 118°05'5 9.6
2018-Feb-03 23:00N 33°37' W 118°07'11 2.3
2018-Feb-03 18:30N 33°44' W 118°16'0 0.0
2018-Feb-03 18:01N 33°44' W 118°16'5 8.9
2018-Feb-03 17:30N 33°43' W 118°11'5 7.8
2018-Feb-03 16:52N 33°39' W 118°08'4 4.1
2018-Feb-03 15:54N 33°35' W 118°08'  
Track history (hours):
 
Tides and Currents Weather Stations Pressure Air Temp Water Temp Dewpoint Dewpoint Depression Visibility Wind Speed Wind Dir Waves Ship Positions

Isabel L

Owner: SO CAL SHIP SERVICES, TERMINAL ISLAND, CA. More information available from US FCC via Universal Licensing System and Coast Guard Vessel Documentation Center.

Last reported at 2018-Feb-13 15:38 UTC. Time now 2018-Feb-23 06:59 UTC.
Position N 33°36' W 118°09'.
Warning: this ship's position is 9 days out of date.

Length 28 m; draft 2 m.

Type: Ship (hazmat cat B). MMSI: 367471080.

Date/timePositionNaut miles runAvg speedWind from/ knotsBaromVisibWave heightAir tempDewpointWater temp
2018-Feb-13 15:38N 33°36' W 118°09'0 0.0
2018-Feb-13 15:23N 33°36' W 118°09'0 0.2
2018-Feb-13 15:00N 33°36' W 118°09'7 0.8
2018-Feb-13 05:53N 33°43' W 118°09'512.9
2018-Feb-13 05:29N 33°43' W 118°15'2 3.5
2018-Feb-13 04:59N 33°44' W 118°16'0 0.0
2018-Feb-13 04:30N 33°44' W 118°16'11 0.2
2018-Feb-11 01:43N 33°40' W 118°04'314.6
2018-Feb-11 01:30N 33°43' W 118°06'1 2.7
2018-Feb-11 01:00N 33°44' W 118°07'4 2.0
2018-Feb-10 22:59N 33°40' W 118°05'714.2
2018-Feb-10 22:30N 33°44' W 118°12'4 5.2
2018-Feb-10 21:44N 33°44' W 118°16'0 0.0
2018-Feb-10 21:31N 33°44' W 118°16'0 0.0
2018-Feb-10 21:00N 33°44' W 118°16'0 0.0
2018-Feb-10 20:31N 33°44' W 118°16'0 0.0
2018-Feb-10 20:00N 33°44' W 118°16'1 1.4
2018-Feb-10 19:30N 33°43' W 118°16'612.3
2018-Feb-10 19:00N 33°43' W 118°09'7 6.5
2018-Feb-10 17:53N 33°36' W 118°09'1 2.8
2018-Feb-10 17:30N 33°37' W 118°08'1 1.2
2018-Feb-10 17:00N 33°36' W 118°08'1 0.4
2018-Feb-10 15:36N 33°36' W 118°09'0 0.0
2018-Feb-10 15:29N 33°36' W 118°09'0 0.0
2018-Feb-10 15:00N 33°36' W 118°09'7 0.8
2018-Feb-10 06:05N 33°43' W 118°10'111.5
2018-Feb-10 05:59N 33°44' W 118°11'4 8.6
2018-Feb-10 05:30N 33°44' W 118°16'0 0.5
2018-Feb-10 04:59N 33°44' W 118°16'1 1.5
2018-Feb-10 04:30N 33°43' W 118°16'8 9.6
2018-Feb-10 03:41N 33°43' W 118°07'0 0.3
2018-Feb-10 02:32N 33°43' W 118°07'1 4.4
2018-Feb-10 02:14N 33°42' W 118°06'313.6
2018-Feb-10 02:00N 33°40' W 118°04'4 8.6
2018-Feb-10 01:30N 33°43' W 118°07'3 6.8
2018-Feb-10 01:00N 33°41' W 118°04'510.7
2018-Feb-10 00:30N 33°36' W 118°08'2 4.3
2018-Feb-10 00:00N 33°39' W 118°08'7 1.0
2018-Feb-09 17:30N 33°43' W 118°14'2 4.8
2018-Feb-09 17:00N 33°44' W 118°16'1 2.2
2018-Feb-09 16:31N 33°43' W 118°16'1 0.2
2018-Feb-09 12:31N 33°44' W 118°16'0 0.8
2018-Feb-09 12:00N 33°44' W 118°16'0 0.0
2018-Feb-09 04:31N 33°44' W 118°16'8 1.8
2018-Feb-09 00:00N 33°43' W 118°07'0 0.0
2018-Feb-08 23:00N 33°43' W 118°07'6 1.8
2018-Feb-08 20:00N 33°38' W 118°06'3 6.2
2018-Feb-08 19:30N 33°36' W 118°09'10 1.4
2018-Feb-08 12:30N 33°43' W 118°16'1 0.6
2018-Feb-08 11:00N 33°44' W 118°16'0 0.0
2018-Feb-08 04:30N 33°44' W 118°16'10 3.4
2018-Feb-08 01:30N 33°41' W 118°05'3 6.9
2018-Feb-08 01:00N 33°44' W 118°07'1 2.6
2018-Feb-08 00:31N 33°43' W 118°06'610.9
2018-Feb-08 00:00N 33°37' W 118°07'3 5.8
2018-Feb-07 23:30N 33°40' W 118°07'3 5.0
2018-Feb-07 23:00N 33°40' W 118°04'4 7.9
2018-Feb-07 22:28N 33°44' W 118°06'1 2.3
2018-Feb-07 22:01N 33°43' W 118°07'0 0.0
2018-Feb-07 21:31N 33°43' W 118°07'8 0.7
2018-Feb-07 09:29N 33°44' W 118°16'0 0.0
2018-Feb-07 09:00N 33°44' W 118°16'0 0.0
2018-Feb-07 08:30N 33°44' W 118°16'0 0.0
2018-Feb-07 08:00N 33°44' W 118°16'0 0.0
2018-Feb-07 07:30N 33°44' W 118°16'0 0.0
2018-Feb-07 07:00N 33°44' W 118°16'0 0.0
2018-Feb-07 06:29N 33°44' W 118°16'0 0.0
2018-Feb-07 06:00N 33°44' W 118°16'0 0.0
2018-Feb-07 05:30N 33°44' W 118°16'0 0.0
2018-Feb-07 05:00N 33°44' W 118°16'0 0.0
2018-Feb-07 04:30N 33°44' W 118°16'0 0.0
2018-Feb-07 03:59N 33°44' W 118°16'0 0.0
2018-Feb-07 03:30N 33°44' W 118°16'1 1.6
2018-Feb-07 03:00N 33°43' W 118°16'813.6
2018-Feb-07 02:24N 33°44' W 118°06'2 5.0
2018-Feb-07 01:57N 33°42' W 118°06'1 2.3
2018-Feb-07 01:30N 33°41' W 118°05'3 5.3
2018-Feb-07 00:58N 33°43' W 118°07'7 6.7
2018-Feb-06 23:57N 33°37' W 118°08'2 5.5
2018-Feb-06 23:30N 33°39' W 118°08'4 8.4
2018-Feb-06 23:00N 33°43' W 118°07'1 2.0
2018-Feb-06 22:31N 33°44' W 118°07'4 8.1
2018-Feb-06 21:59N 33°40' W 118°04'6 1.5
2018-Feb-06 18:07N 33°36' W 118°09'0 0.1
2018-Feb-06 17:59N 33°36' W 118°09'0 0.0
2018-Feb-06 17:07N 33°36' W 118°09'1 0.7
2018-Feb-06 15:30N 33°35' W 118°08'4 7.0
2018-Feb-06 15:00N 33°39' W 118°08'6 3.3
2018-Feb-06 13:15N 33°44' W 118°06'1 0.2
2018-Feb-06 08:17N 33°43' W 118°07'4 0.6
2018-Feb-06 01:41N 33°40' W 118°04'213.6
2018-Feb-06 01:30N 33°42' W 118°05'2 4.5
2018-Feb-06 01:00N 33°44' W 118°07'0 0.7
2018-Feb-06 00:27N 33°44' W 118°07'814.4
2018-Feb-05 23:52N 33°36' W 118°09'512.9
2018-Feb-05 23:30N 33°39' W 118°12'6 7.1
2018-Feb-05 22:42N 33°44' W 118°16'0 0.0
2018-Feb-05 22:30N 33°44' W 118°16'3 5.2
2018-Feb-05 22:00N 33°43' W 118°13'9 8.7
2018-Feb-05 21:00N 33°40' W 118°04'5 7.6
2018-Feb-05 20:21N 33°44' W 118°07'8 6.5
2018-Feb-05 19:03N 33°36' W 118°08'1 6.2
2018-Feb-05 18:54N 33°35' W 118°08'1 0.6
2018-Feb-05 17:02N 33°36' W 118°08'0 0.2
2018-Feb-05 17:00N 33°36' W 118°08'0 0.1
2018-Feb-05 16:30N 33°36' W 118°09'0 0.0
2018-Feb-05 16:00N 33°36' W 118°09'1 1.2
2018-Feb-05 15:00N 33°37' W 118°08'5 0.4
2018-Feb-05 01:34N 33°42' W 118°05'115.6
2018-Feb-05 01:30N 33°43' W 118°06'1 1.5
2018-Feb-05 01:00N 33°43' W 118°07'0 0.0
2018-Feb-05 00:30N 33°43' W 118°07'0 0.0
2018-Feb-05 00:00N 33°43' W 118°07'0 0.0
2018-Feb-04 23:30N 33°43' W 118°07'0 0.0
2018-Feb-04 23:00N 33°43' W 118°07'0 0.0
2018-Feb-04 22:30N 33°43' W 118°07'0 0.7
2018-Feb-04 22:00N 33°43' W 118°06'2 3.8
2018-Feb-04 21:30N 33°41' W 118°06'6 2.3
2018-Feb-04 18:51N 33°43' W 118°13'912.9
2018-Feb-04 18:10N 33°40' W 118°04'6 2.1
2018-Feb-04 15:29N 33°36' W 118°08'1 2.2
2018-Feb-04 15:00N 33°37' W 118°08'6 2.4
2018-Feb-04 12:17N 33°43' W 118°07'0 0.0
2018-Feb-04 12:00N 33°43' W 118°07'0 0.0
2018-Feb-04 11:31N 33°43' W 118°07'0 0.0
2018-Feb-04 05:47N 33°43' W 118°07'0 0.0
2018-Feb-04 05:27N 33°43' W 118°07'0 0.0
2018-Feb-04 04:59N 33°43' W 118°07'0 0.0
2018-Feb-04 04:23N 33°43' W 118°07'0 0.0
2018-Feb-04 03:35N 33°43' W 118°07'713.4
2018-Feb-04 03:02N 33°36' W 118°08'0 2.2
2018-Feb-04 03:00N 33°36' W 118°09'6 5.6
2018-Feb-04 01:59N 33°40' W 118°04'4 8.0
2018-Feb-04 01:30N 33°43' W 118°07'0 0.5
2018-Feb-04 01:01N 33°43' W 118°07'0 0.0
2018-Feb-04 00:30N 33°43' W 118°07'0 0.0
2018-Feb-04 00:00N 33°43' W 118°07'2 3.5
2018-Feb-03 23:30N 33°42' W 118°05'5 9.6
2018-Feb-03 23:00N 33°37' W 118°07'11 2.3
2018-Feb-03 18:30N 33°44' W 118°16'0 0.0
2018-Feb-03 18:01N 33°44' W 118°16'5 8.9
2018-Feb-03 17:30N 33°43' W 118°11'5 7.8
2018-Feb-03 16:52N 33°39' W 118°08'4 4.1
2018-Feb-03 15:54N 33°35' W 118°08'  

Dump ship's entire track history